Time;durP1;ratioP1;P1;durP2;ratioP2;P2;SDS_P1;SDS_P2;PMS_P1;PMS_P2;Temp;Humidity;BMP_temperature;BMP_pressure;BME280_temperature;BME280_humidity;BME280_pressure;Samples;Min_cycle;Max_cycle;Signal;HPM_P1;HPM_P2
2023/02/14 00:02:21;;;;;;;20.00;13.10;;;;;;;0.30;100.00;151446.66;5005356;28;20456;-79
2023/02/14 00:04:48;;;;;;;18.07;13.30;;;;;;;0.26;100.00;151436.41;4994771;28;20462;-79
2023/02/14 00:07:15;;;;;;;21.57;13.53;;;;;;;0.28;100.00;151442.84;4977627;28;20484;-79
2023/02/14 00:09:41;;;;;;;20.33;13.53;;;;;;;0.24;100.00;151432.53;5000900;28;20460;-79
2023/02/14 00:12:08;;;;;;;22.00;13.27;;;;;;;0.19;100.00;151418.41;4992516;28;20452;-79
2023/02/14 00:17:19;;;;;;;17.97;13.20;;;;;;;0.20;100.00;151421.00;4988014;28;20544;-79
2023/02/14 00:19:47;;;;;;;20.10;13.93;;;;;;;0.17;100.00;151413.28;4981490;28;20884;-79
2023/02/14 00:22:14;;;;;;;24.17;14.77;;;;;;;0.17;100.00;151413.28;5007934;28;20485;-79
2023/02/14 00:24:41;;;;;;;19.10;13.17;;;;;;;0.22;100.00;151426.13;4998926;28;20461;-79
2023/02/14 00:27:07;;;;;;;17.33;13.03;;;;;;;0.20;100.00;151421.00;4994200;28;20473;-79
2023/02/14 00:29:34;;;;;;;21.17;15.00;;;;;;;0.16;100.00;151410.75;4993332;28;20457;-78
2023/02/14 00:32:02;;;;;;;19.90;13.80;;;;;;;0.15;100.00;151409.47;4997926;28;20433;-79
2023/02/14 00:34:28;;;;;;;22.73;14.47;;;;;;;0.14;100.00;151405.59;4993727;28;20902;-79
2023/02/14 00:36:57;;;;;;;17.17;12.70;;;;;;;0.17;100.00;151413.28;4975331;28;20560;-78
2023/02/14 00:39:24;;;;;;;22.33;15.10;;;;;;;0.18;100.00;151415.88;4987636;28;20462;-78
2023/02/14 00:41:51;;;;;;;20.13;14.90;;;;;;;0.14;100.00;151405.59;5009858;28;20454;-79
2023/02/14 00:44:17;;;;;;;20.97;14.43;;;;;;;0.12;100.00;151400.47;4993564;28;20751;-79
2023/02/14 00:46:44;;;;;;;19.10;14.17;;;;;;;0.11;100.00;151399.16;5008020;28;20464;-79
2023/02/14 00:49:11;;;;;;;20.83;14.77;;;;;;;0.09;100.00;151392.75;5011218;28;20561;-79
2023/02/14 00:51:38;;;;;;;21.37;15.23;;;;;;;0.13;100.00;151403.06;4994537;28;20489;-79
2023/02/14 00:54:06;;;;;;;22.57;14.67;;;;;;;0.09;100.00;151394.06;5007701;28;20805;-79
2023/02/14 00:56:33;;;;;;;19.37;14.03;;;;;;;0.07;100.00;151387.63;4992955;28;20937;-78
2023/02/14 00:58:59;;;;;;;21.10;13.93;;;;;;;0.04;100.00;151381.22;4992944;28;20541;-79
2023/02/14 01:01:27;;;;;;;20.63;14.00;;;;;;;0.03;100.00;151377.41;5011402;28;20484;-79
2023/02/14 01:03:54;;;;;;;22.97;15.10;;;;;;;0.05;100.00;151383.81;5018171;28;20466;-79
2023/02/14 01:06:20;;;;;;;18.60;13.60;;;;;;;0.03;100.00;151377.41;4993294;28;20456;-78
2023/02/14 01:08:49;;;;;;;17.30;13.00;;;;;;;0.07;100.00;151387.63;5012692;28;20952;-79
2023/02/14 01:11:19;;;;;;;17.90;13.03;;;;;;;0.05;100.00;151382.50;5026426;28;20797;-79
2023/02/14 01:13:46;;;;;;;20.40;13.60;;;;;;;0.00;100.00;151372.22;4979154;28;20533;-79
2023/02/14 01:16:15;;;;;;;18.73;13.33;;;;;;;0.02;100.00;151376.09;4975658;28;20547;-79
2023/02/14 01:18:43;;;;;;;21.13;13.63;;;;;;;-0.03;100.00;151364.53;4990722;28;21213;-79
2023/02/14 01:21:15;;;;;;;18.93;14.20;;;;;;;-0.05;100.00;151358.09;4996075;28;20452;-79
2023/02/14 01:23:41;;;;;;;20.90;13.67;;;;;;;-0.04;100.00;151361.97;4994476;28;20503;-79
2023/02/14 01:26:09;;;;;;;21.53;13.20;;;;;;;-0.07;100.00;151352.97;5002440;28;20461;-79
2023/02/14 01:28:37;;;;;;;21.07;13.90;;;;;;;-0.04;100.00;151361.97;5020135;28;20495;-78
2023/02/14 01:31:10;;;;;;;20.00;13.97;;;;;;;-0.10;100.00;151346.56;4993457;28;20506;-79
2023/02/14 01:33:37;;;;;;;19.20;13.33;;;;;;;-0.12;100.00;151341.44;4990294;28;20552;-79
2023/02/14 01:36:04;;;;;;;19.27;13.50;;;;;;;-0.16;100.00;151331.16;5011443;28;20481;-79
2023/02/14 01:38:31;;;;;;;20.10;13.10;;;;;;;-0.13;100.00;151338.88;4995296;28;20522;-77
2023/02/14 01:40:58;;;;;;;20.43;13.70;;;;;;;-0.16;100.00;151331.16;4993697;28;20456;-79
2023/02/14 01:43:25;;;;;;;17.30;12.73;;;;;;;-0.16;100.00;151329.91;5006785;28;20445;-80
2023/02/14 01:45:53;;;;;;;23.70;13.43;;;;;;;-0.11;100.00;151344.00;5010878;28;20551;-79
2023/02/14 01:48:21;;;;;;;23.43;13.97;;;;;;;-0.12;100.00;151341.44;4995784;28;20465;-79
2023/02/14 01:50:49;;;;;;;22.07;15.23;;;;;;;-0.13;100.00;151338.88;4994149;28;20745;-78
2023/02/14 01:53:17;;;;;;;20.90;12.60;;;;;;;-0.17;100.00;151328.63;4993498;28;20807;-79
2023/02/14 01:55:46;;;;;;;19.40;13.20;;;;;;;-0.20;100.00;151319.63;5001058;28;20745;-79
2023/02/14 01:58:15;;;;;;;22.80;14.37;;;;;;;-0.19;100.00;151323.50;4994767;28;20458;-78
2023/02/14 02:00:59;;;;;;;22.73;13.80;;;;;;;-0.17;100.00;151328.63;4993675;28;21007;-79
2023/02/14 02:03:31;;;;;;;22.30;14.63;;;;;;;-0.16;100.00;151331.16;5010407;28;20951;-79
2023/02/14 02:06:04;;;;;;;23.27;13.87;;;;;;;-0.18;100.00;151326.03;4995791;28;20510;-78
2023/02/14 02:08:32;;;;;;;20.37;13.93;;;;;;;-0.21;100.00;151318.34;5014548;28;20472;-78
2023/02/14 02:11:01;;;;;;;22.00;15.10;;;;;;;-0.21;100.00;151317.03;4998898;28;20433;-78
2023/02/14 02:13:27;;;;;;;21.70;14.50;;;;;;;-0.22;100.00;151314.50;4978208;28;20488;-79
2023/02/14 02:16:08;;;;;;;21.37;13.17;;;;;;;-0.21;100.00;151318.34;4996833;28;20433;-79
2023/02/14 02:18:45;;;;;;;21.07;14.67;;;;;;;-0.26;100.00;151305.50;4993407;28;20799;-79
2023/02/14 02:21:48;;;;;;;21.33;15.53;;;;;;;-0.31;100.00;151292.69;4992759;28;20982;-79
2023/02/14 02:24:27;;;;;;;23.10;13.10;;;;;;;-0.31;100.00;151292.69;4991170;28;20955;-79
2023/02/14 02:27:29;;;;;;;23.77;13.97;;;;;;;-0.32;100.00;151290.09;5007106;28;20453;-79
2023/02/14 02:30:30;;;;;;;19.93;14.10;;;;;;;-0.34;100.00;151284.97;4961604;28;20784;-79
2023/02/14 02:33:29;;;;;;;21.27;14.80;;;;;;;-0.32;100.00;151290.09;5008438;28;20542;-78
2023/02/14 02:36:08;;;;;;;23.43;15.30;;;;;;;-0.37;100.00;151277.28;5010955;28;20482;-78
2023/02/14 02:38:55;;;;;;;21.80;13.60;;;;;;;-0.36;100.00;151279.88;5011982;28;20436;-78
2023/02/14 02:41:31;;;;;;;20.33;13.83;;;;;;;-0.40;100.00;151269.63;4992682;28;20423;-78
2023/02/14 02:44:03;;;;;;;24.97;14.27;;;;;;;-0.39;100.00;151272.16;5007537;28;20440;-78
2023/02/14 02:46:48;;;;;;;26.17;15.37;;;;;;;-0.41;100.00;151265.75;5021218;28;20889;-78
2023/02/14 02:55:02;;;;;;;28.37;15.40;;;;;;;-0.40;100.00;151269.63;4994997;28;21010;-78
2023/02/14 02:57:33;;;;;;;25.77;15.40;;;;;;;-0.40;100.00;151269.63;4979730;28;20440;-77
2023/02/14 03:00:02;;;;;;;23.60;15.20;;;;;;;-0.42;100.00;151263.16;4997415;28;20445;-78
2023/02/14 03:02:31;;;;;;;21.97;15.60;;;;;;;-0.39;100.00;151270.88;5004964;28;20819;-78
2023/02/14 03:05:02;;;;;;;25.00;15.30;;;;;;;-0.29;100.00;151297.81;4986445;28;20449;-78
2023/02/14 03:07:36;;;;;;;27.60;15.77;;;;;;;-0.36;100.00;151278.56;4976589;28;20465;-78
2023/02/14 03:10:09;;;;;;;22.40;14.40;;;;;;;-0.36;100.00;151279.88;4975571;28;21047;-78
2023/02/14 03:13:14;;;;;;;26.40;15.70;;;;;;;-0.34;100.00;151284.97;4976198;28;20469;-78
2023/02/14 03:15:53;;;;;;;21.57;15.07;;;;;;;-0.32;100.00;151288.84;4996649;28;20463;-79
2023/02/14 03:18:32;;;;;;;21.20;14.30;;;;;;;-0.31;100.00;151292.69;4980581;28;20484;-79
2023/02/14 03:21:05;;;;;;;28.47;15.60;;;;;;;-0.30;100.00;151295.28;5003235;28;20842;-79
2023/02/14 03:23:39;;;;;;;22.17;15.13;;;;;;;-0.32;100.00;151290.09;4989169;28;20532;-79
2023/02/14 03:26:09;;;;;;;22.27;14.53;;;;;;;-0.33;100.00;151287.56;4988963;28;20504;-77
2023/02/14 03:28:41;;;;;;;22.87;15.10;;;;;;;-0.30;100.00;151293.97;4990304;28;20559;-79
2023/02/14 03:31:12;;;;;;;26.80;16.33;;;;;;;-0.30;100.00;151295.28;4983396;28;20512;-79
2023/02/14 03:33:44;;;;;;;28.23;15.50;;;;;;;-0.28;100.00;151300.41;5000859;28;20534;-79
2023/02/14 03:36:13;;;;;;;24.90;15.40;;;;;;;-0.20;100.00;151320.91;4994541;28;20467;-79
2023/02/14 03:38:46;;;;;;;24.90;15.37;;;;;;;-0.16;100.00;151329.91;4977100;28;20446;-79
2023/02/14 03:41:15;;;;;;;27.10;15.40;;;;;;;-0.16;100.00;151331.16;5001719;28;20484;-79
2023/02/14 03:43:45;;;;;;;26.13;15.17;;;;;;;-0.12;100.00;151341.44;4993711;28;20442;-79
2023/02/14 03:46:13;;;;;;;26.60;16.90;;;;;;;-0.13;100.00;151338.88;5002056;28;20462;-79
2023/02/14 03:48:42;;;;;;;21.27;14.73;;;;;;;-0.16;100.00;151331.16;5005042;28;20483;-80
2023/02/14 03:51:10;;;;;;;28.13;17.37;;;;;;;-0.22;100.00;151315.81;5018667;28;20552;-79
2023/02/14 03:53:43;;;;;;;25.90;16.30;;;;;;;-0.28;100.00;151300.41;4992504;28;20451;-80
2023/02/14 03:56:14;;;;;;;24.00;15.80;;;;;;;-0.25;100.00;151308.09;4991275;28;21017;-79
2023/02/14 03:58:43;;;;;;;21.87;15.50;;;;;;;-0.26;100.00;151304.22;5002988;28;20555;-79
2023/02/14 04:01:14;;;;;;;28.67;16.57;;;;;;;-0.28;100.00;151300.41;4995134;28;20468;-79
2023/02/14 04:03:42;;;;;;;26.73;16.87;;;;;;;-0.27;100.00;151302.97;5008495;28;20518;-79
2023/02/14 04:06:09;;;;;;;23.90;15.17;;;;;;;-0.26;100.00;151304.22;5005298;28;20461;-79
2023/02/14 04:08:36;;;;;;;26.80;16.80;;;;;;;-0.27;100.00;151301.69;5006133;28;20567;-79
2023/02/14 04:11:05;;;;;;;23.80;15.47;;;;;;;-0.29;100.00;151296.56;5000458;28;20864;-79
2023/02/14 04:13:32;;;;;;;24.90;15.13;;;;;;;-0.28;100.00;151299.09;4998323;28;20450;-79
2023/02/14 04:15:58;;;;;;;25.60;15.90;;;;;;;-0.26;100.00;151305.50;5009403;28;20466;-79
2023/02/14 04:21:10;;;;;;;25.10;16.00;;;;;;;-0.39;100.00;151270.88;4984722;28;20457;-79
2023/02/14 04:23:36;;;;;;;23.53;15.90;;;;;;;-0.38;100.00;151274.75;5009818;28;20429;-78
2023/02/14 04:26:05;;;;;;;26.57;16.67;;;;;;;-0.36;100.00;151278.56;4988920;28;20450;-79
2023/02/14 04:28:32;;;;;;;26.23;15.50;;;;;;;-0.39;100.00;151272.16;4996897;28;20603;-79
2023/02/14 04:31:01;;;;;;;28.40;16.20;;;;;;;-0.38;100.00;151274.75;5009006;28;20555;-79
2023/02/14 04:33:28;;;;;;;25.27;16.40;;;;;;;-0.42;100.00;151263.16;5010826;28;20457;-79
2023/02/14 04:35:55;;;;;;;25.30;14.73;;;;;;;-0.46;100.00;151254.22;4980731;28;20476;-79
2023/02/14 04:38:21;;;;;;;26.20;16.77;;;;;;;-0.45;100.00;151256.75;4997935;28;20496;-79
2023/02/14 04:40:48;;;;;;;22.60;15.00;;;;;;;-0.43;100.00;151260.63;5002417;28;20490;-79
2023/02/14 04:43:17;;;;;;;23.53;15.40;;;;;;;-0.47;100.00;151251.63;5014241;28;20551;-78
2023/02/14 04:45:44;;;;;;;21.23;14.43;;;;;;;-0.47;100.00;151251.63;5010353;28;20488;-79
2023/02/14 04:48:11;;;;;;;24.60;16.33;;;;;;;-0.47;100.00;151250.34;4989998;28;20473;-79
2023/02/14 04:50:37;;;;;;;23.07;16.17;;;;;;;-0.48;100.00;151247.81;5011487;28;20450;-79
2023/02/14 04:53:04;;;;;;;22.90;15.33;;;;;;;-0.42;100.00;151264.47;5004723;28;20453;-79
2023/02/14 04:55:31;;;;;;;24.63;13.27;;;;;;;-0.29;100.00;151297.81;4996008;28;20468;-79
2023/02/14 04:57:57;;;;;;;22.37;16.07;;;;;;;-0.37;100.00;151277.28;4995138;28;20452;-78
2023/02/14 05:00:26;;;;;;;26.47;14.93;;;;;;;-0.34;100.00;151284.97;5013737;28;20521;-83
2023/02/14 05:02:52;;;;;;;23.73;14.60;;;;;;;-0.39;100.00;151272.16;5003899;28;20445;-84
2023/02/14 05:05:19;;;;;;;26.80;16.70;;;;;;;-0.47;100.00;151250.34;5014048;28;20459;-83
2023/02/14 05:07:46;;;;;;;23.47;16.40;;;;;;;-0.47;100.00;151251.63;4994626;28;20473;-84
2023/02/14 05:10:13;;;;;;;21.77;14.17;;;;;;;-0.44;100.00;151259.34;4992765;28;20462;-85
2023/02/14 05:12:40;;;;;;;23.10;15.37;;;;;;;-0.47;100.00;151251.63;4978657;28;20463;-84
2023/02/14 05:15:07;;;;;;;26.33;15.97;;;;;;;-0.49;100.00;151246.53;4994791;28;20491;-85
2023/02/14 05:17:36;;;;;;;25.50;15.47;;;;;;;-0.45;100.00;151256.75;4994975;28;20476;-85
2023/02/14 05:20:03;;;;;;;29.63;16.20;;;;;;;-0.42;100.00;151264.47;4975787;28;20464;-84
2023/02/14 05:22:30;;;;;;;24.17;15.23;;;;;;;-0.48;100.00;151247.81;4986829;28;20472;-86
2023/02/14 05:24:56;;;;;;;22.97;14.80;;;;;;;-0.55;100.00;151231.13;5004286;28;20476;-84
2023/02/14 05:27:23;;;;;;;26.87;14.87;;;;;;;-0.52;100.00;151238.81;4994100;28;20454;-85
2023/02/14 05:29:50;;;;;;;27.47;16.43;;;;;;;-0.55;100.00;151229.81;4977899;28;20562;-82
2023/02/14 05:32:16;;;;;;;24.37;14.10;;;;;;;-0.55;100.00;151229.81;4994233;28;20644;-84
2023/02/14 05:34:44;;;;;;;25.33;16.80;;;;;;;-0.61;100.00;151215.75;5012921;28;20548;-83
2023/02/14 05:37:11;;;;;;;24.03;14.93;;;;;;;-0.58;100.00;151222.16;5012173;28;20816;-84
2023/02/14 05:39:38;;;;;;;22.40;15.00;;;;;;;-0.58;100.00;151223.41;5008901;28;20496;-84
2023/02/14 05:42:05;;;;;;;24.50;16.07;;;;;;;-0.61;100.00;151215.75;4989543;28;20491;-84
2023/02/14 05:44:31;;;;;;;21.67;14.87;;;;;;;-0.65;100.00;151206.75;5000255;28;20485;-84
2023/02/14 05:46:58;;;;;;;21.93;15.50;;;;;;;-0.66;100.00;151202.88;4998376;28;20539;-85
2023/02/14 05:49:25;;;;;;;24.37;15.37;;;;;;;-0.65;100.00;151205.47;4996870;28;21126;-84
2023/02/14 05:51:53;;;;;;;20.77;13.77;;;;;;;-0.65;100.00;151205.47;4994418;28;20453;-84
2023/02/14 05:54:19;;;;;;;25.97;16.03;;;;;;;-0.68;100.00;151199.06;4992278;28;20454;-84
2023/02/14 05:56:46;;;;;;;23.97;15.33;;;;;;;-0.68;100.00;151199.06;5012831;28;20877;-84
2023/02/14 05:59:13;;;;;;;24.30;14.40;;;;;;;-0.69;100.00;151196.47;5000640;28;20461;-84
2023/02/14 06:01:40;;;;;;;27.43;16.07;;;;;;;-0.72;100.00;151187.53;5013377;28;20455;-84
2023/02/14 06:04:07;;;;;;;19.23;13.30;;;;;;;-0.66;100.00;151202.88;4995057;28;20494;-84
2023/02/14 06:06:33;;;;;;;22.80;14.77;;;;;;;-0.64;100.00;151208.06;4982656;28;20532;-84
2023/02/14 06:09:01;;;;;;;22.13;15.20;;;;;;;-0.69;100.00;151196.47;4979895;28;20501;-84
2023/02/14 06:11:28;;;;;;;21.00;14.57;;;;;;;-0.73;100.00;151184.94;4998646;28;20996;-85
2023/02/14 06:13:58;;;;;;;22.20;14.67;;;;;;;-0.76;100.00;151177.25;4985675;28;20454;-84
2023/02/14 06:16:25;;;;;;;20.60;14.03;;;;;;;-0.73;100.00;151184.94;4997989;28;20459;-84
2023/02/14 06:18:52;;;;;;;25.57;15.50;;;;;;;-0.74;100.00;151183.66;5001916;28;20857;-84
2023/02/14 06:21:18;;;;;;;25.70;15.43;;;;;;;-0.75;100.00;151181.13;4989016;28;20448;-84
2023/02/14 06:23:45;;;;;;;25.70;15.67;;;;;;;-0.75;100.00;151179.84;4992728;28;20536;-84
2023/02/14 06:26:13;;;;;;;24.30;15.67;;;;;;;-0.81;100.00;151164.44;4980110;28;20479;-84
2023/02/14 06:28:41;;;;;;;22.17;16.17;;;;;;;-0.77;100.00;151175.97;5000525;28;20510;-85
2023/02/14 06:31:08;;;;;;;24.33;14.77;;;;;;;-0.76;100.00;151177.25;5000021;28;20842;-84
2023/02/14 06:33:35;;;;;;;24.27;15.40;;;;;;;-0.77;100.00;151175.97;4982746;28;20538;-85
2023/02/14 06:36:01;;;;;;;22.30;14.43;;;;;;;-0.79;100.00;151170.84;5000173;28;20518;-83
2023/02/14 06:38:28;;;;;;;20.40;13.67;;;;;;;-0.80;100.00;151167.00;4987999;28;20940;-82
2023/02/14 06:40:55;;;;;;;23.47;14.90;;;;;;;-0.81;100.00;151165.72;4995104;28;20476;-83
2023/02/14 06:43:23;;;;;;;20.67;13.90;;;;;;;-0.77;100.00;151174.72;5004047;28;20482;-83
2023/02/14 06:45:49;;;;;;;24.10;15.37;;;;;;;-0.81;100.00;151164.44;4994314;28;20503;-83
2023/02/14 06:48:16;;;;;;;23.90;15.00;;;;;;;-0.79;100.00;151170.84;4981201;28;20464;-84
2023/02/14 06:50:43;;;;;;;22.17;14.97;;;;;;;-0.75;100.00;151179.84;4998953;28;21201;-83
2023/02/14 06:53:10;;;;;;;25.60;15.90;;;;;;;-0.76;100.00;151177.25;5006071;28;20460;-83
2023/02/14 06:55:37;;;;;;;26.33;16.53;;;;;;;-0.74;100.00;151182.38;4995838;28;20457;-84
2023/02/14 06:58:03;;;;;;;22.07;15.47;;;;;;;-0.69;100.00;151195.25;4989240;28;20456;-84
2023/02/14 07:00:32;;;;;;;22.60;14.07;;;;;;;-0.59;100.00;151220.88;4983151;28;21085;-84
2023/02/14 07:02:58;;;;;;;27.73;16.00;;;;;;;-0.53;100.00;151236.22;4969662;28;20468;-84
2023/02/14 07:05:25;;;;;;;25.30;16.43;;;;;;;-0.40;100.00;151269.63;4997065;28;20555;-84
2023/02/14 07:07:52;;;;;;;22.17;15.00;;;;;;;-0.29;100.00;151297.81;4979674;28;20452;-84
2023/02/14 07:10:19;;;;;;;27.10;17.57;;;;;;;-0.08;100.00;151351.69;4985586;28;20535;-84
2023/02/14 07:12:46;;;;;;;21.27;15.40;;;;;;;0.13;100.00;151403.06;4999269;28;20457;-84
2023/02/14 07:15:13;;;;;;;30.27;17.07;;;;;;;0.33;100.00;151454.38;4995371;28;20464;-84
2023/02/14 07:17:41;;;;;;;24.67;15.43;;;;;;;0.55;100.00;151510.88;4988572;28;20550;-84
2023/02/14 07:20:09;;;;;;;27.60;16.10;;;;;;;0.68;100.00;151542.97;4982859;28;20461;-84
2023/02/14 07:22:37;;;;;;;28.10;17.57;;;;;;;0.78;100.00;151569.91;4982660;28;20444;-84
2023/02/14 07:28:20;;;;;;;23.63;16.10;;;;;;;1.04;100.00;151635.41;4995072;28;20540;-84
2023/02/14 07:31:07;;;;;;;26.17;16.57;;;;;;;1.18;100.00;151672.69;4996899;28;21185;-84
2023/02/14 07:33:44;;;;;;;26.50;16.10;;;;;;;1.31;100.00;151703.50;4981849;28;20445;-83
2023/02/14 07:36:11;;;;;;;25.50;16.47;;;;;;;1.32;100.00;151706.06;4982420;28;20575;-84
2023/02/14 07:38:38;;;;;;;24.13;15.60;;;;;;;1.43;100.00;151734.34;4989608;28;20544;-84
2023/02/14 07:41:05;;;;;;;23.60;15.80;;;;;;;1.47;100.00;151744.59;4992770;28;20930;-84
2023/02/14 07:43:33;;;;;;;23.87;14.90;;;;;;;1.68;100.00;151798.56;4999522;28;20479;-83
2023/02/14 07:46:00;;;;;;;22.20;15.93;;;;;;;1.85;100.00;151843.53;5004124;28;20513;-84
2023/02/14 07:48:27;;;;;;;24.37;16.13;;;;;;;2.08;100.00;151901.41;5022588;28;20454;-85
2023/02/14 07:50:56;;;;;;;23.80;17.17;;;;;;;2.34;100.00;151968.25;5018150;28;20480;-84
2023/02/14 07:53:23;;;;;;;24.17;17.07;;;;;;;2.54;100.00;152018.44;4990634;28;20461;-85
2023/02/14 07:55:50;;;;;;;27.40;17.77;;;;;;;2.73;100.00;152065.97;4986798;28;20451;-85
2023/02/14 07:58:17;;;;;;;27.30;17.50;;;;;;;2.79;100.00;152082.72;4985726;28;20815;-85
2023/02/14 08:00:45;;;;;;;28.00;17.07;;;;;;;3.02;100.00;152140.59;4998571;28;20479;-86
2023/02/14 08:03:12;;;;;;;21.67;16.97;;;;;;;3.26;100.00;152202.38;4988976;28;20486;-86
2023/02/14 08:05:39;;;;;;;24.80;17.97;;;;;;;3.48;100.00;152259.00;4986816;28;20459;-86
2023/02/14 08:08:07;;;;;;;22.20;16.10;;;;;;;3.58;100.00;152284.75;4996922;28;20468;-85
2023/02/14 08:10:34;;;;;;;23.73;16.17;;;;;;;3.65;100.00;152302.75;4987367;28;20523;-86
2023/02/14 08:13:01;;;;;;;21.80;15.70;;;;;;;3.80;100.00;152340.13;4986815;28;20546;-86
2023/02/14 08:18:14;;;;;;;22.10;16.97;;;;;;;3.80;100.00;152338.81;4983344;28;20452;-86
2023/02/14 08:20:41;;;;;;;20.77;15.97;;;;;;;3.78;100.00;152333.69;4982913;28;20537;-86
2023/02/14 08:23:09;;;;;;;22.27;15.57;;;;;;;3.81;100.00;152341.41;4988890;28;20458;-86
2023/02/14 08:25:36;;;;;;;18.83;14.80;;;;;;;3.74;100.00;152323.34;4988970;28;20540;-86
2023/02/14 08:28:03;;;;;;;22.07;17.13;;;;;;;3.67;100.00;152307.94;4970476;28;20871;-86
2023/02/14 08:30:30;;;;;;;22.63;15.77;;;;;;;3.76;100.00;152328.53;4986987;28;20574;-86
2023/02/14 08:32:57;;;;;;;21.47;15.90;;;;;;;3.80;99.88;152338.81;4979978;28;20456;-86
2023/02/14 08:35:23;;;;;;;22.60;15.90;;;;;;;3.75;100.00;152325.94;4997553;28;20476;-86
2023/02/14 08:37:50;;;;;;;22.00;17.30;;;;;;;3.55;100.00;152277.03;4984842;28;21100;-87
2023/02/14 08:40:19;;;;;;;21.93;15.97;;;;;;;3.56;100.00;152279.63;4999864;28;20535;-87
2023/02/14 08:42:45;;;;;;;21.47;16.20;;;;;;;3.49;100.00;152260.31;4995866;28;20543;-87
2023/02/14 08:45:12;;;;;;;19.00;15.10;;;;;;;3.35;100.00;152224.25;4982278;28;20507;-87
2023/02/14 08:47:39;;;;;;;19.97;16.13;;;;;;;3.28;100.00;152207.56;4980176;28;20469;-87
2023/02/14 08:50:08;;;;;;;21.20;15.40;;;;;;;3.28;100.00;152207.56;5001467;28;20498;-87
2023/02/14 08:52:35;;;;;;;22.53;15.20;;;;;;;3.33;100.00;152220.41;4989157;28;20913;-86
2023/02/14 08:55:03;;;;;;;25.77;17.27;;;;;;;3.36;100.00;152228.09;4985990;28;20891;-86
2023/02/14 08:57:32;;;;;;;21.77;17.37;;;;;;;3.37;100.00;152230.69;4995930;28;20471;-86
2023/02/14 08:59:59;;;;;;;22.10;15.67;;;;;;;3.53;100.00;152271.88;5005048;28;20437;-85
2023/02/14 09:02:25;;;;;;;23.40;17.57;;;;;;;3.60;100.00;152289.88;4995831;28;20548;-85
2023/02/14 09:04:52;;;;;;;19.57;15.83;;;;;;;3.51;100.00;152266.75;5013413;28;20459;-85
2023/02/14 09:07:19;;;;;;;15.27;13.03;;;;;;;3.67;100.00;152307.94;5002084;28;20502;-85
2023/02/14 09:09:46;;;;;;;18.00;14.03;;;;;;;3.67;100.00;152307.94;5004301;28;20477;-85
2023/02/14 09:12:13;;;;;;;21.17;16.20;;;;;;;3.58;100.00;152283.47;5003695;28;20551;-85
2023/02/14 09:14:43;;;;;;;18.67;16.57;;;;;;;3.54;100.00;152273.19;5004074;28;20695;-85
2023/02/14 09:17:10;;;;;;;20.23;15.47;;;;;;;3.57;100.00;152282.16;4988315;28;20464;-85
2023/02/14 09:19:38;;;;;;;19.27;14.93;;;;;;;3.60;99.26;152289.88;4989587;28;20481;-85
2023/02/14 09:22:05;;;;;;;19.80;14.70;;;;;;;3.61;100.00;152292.47;4990024;28;20456;-85
2023/02/14 09:24:33;;;;;;;21.20;15.93;;;;;;;3.64;100.00;152298.91;4981001;28;20538;-85
2023/02/14 09:26:59;;;;;;;18.67;14.93;;;;;;;3.85;100.00;152353.00;4988319;28;20464;-85
2023/02/14 09:29:27;;;;;;;20.47;15.13;;;;;;;3.87;100.00;152356.81;5005309;28;20836;-84
2023/02/14 09:31:56;;;;;;;18.40;13.27;;;;;;;3.79;100.00;152337.53;4991529;28;20806;-84
2023/02/14 09:34:23;;;;;;;18.97;15.13;;;;;;;3.79;100.00;152337.53;4992992;28;21064;-85
2023/02/14 09:39:36;;;;;;;22.73;16.70;;;;;;;3.75;100.00;152325.94;4984227;28;20444;-84
2023/02/14 09:42:37;;;;;;;20.40;15.50;;;;;;;3.78;100.00;152333.69;4984353;28;20977;-83
2023/02/14 09:45:05;;;;;;;20.97;16.00;;;;;;;3.79;100.00;152337.53;4987040;28;20942;-83
2023/02/14 09:47:36;;;;;;;20.60;17.00;;;;;;;3.87;100.00;152358.13;4991232;28;20494;-83
2023/02/14 09:50:05;;;;;;;21.07;15.77;;;;;;;3.95;100.00;152377.44;5003507;28;20576;-83
2023/02/14 09:52:32;;;;;;;25.17;16.40;;;;;;;4.15;99.19;152430.28;4989046;28;20475;-83
2023/02/14 09:55:01;;;;;;;20.50;15.23;;;;;;;4.19;98.28;152439.25;5004008;28;20507;-83
2023/02/14 09:57:35;;;;;;;20.37;15.13;;;;;;;4.16;98.53;152431.53;5003326;28;21087;-83
2023/02/14 10:00:14;;;;;;;20.33;14.80;;;;;;;4.10;98.08;152417.34;5008156;28;20443;-84
2023/02/14 10:02:51;;;;;;;17.97;14.47;;;;;;;4.11;98.74;152419.94;4981118;28;20483;-84
2023/02/14 10:05:20;;;;;;;18.37;14.77;;;;;;;4.20;98.27;152443.16;4990659;28;20445;-83
2023/02/14 10:07:57;;;;;;;17.43;14.63;;;;;;;4.34;96.47;152477.94;5006188;28;20457;-84
2023/02/14 10:10:26;;;;;;;19.23;13.83;;;;;;;4.44;95.42;152503.69;4991054;28;20479;-84
2023/02/14 10:12:55;;;;;;;20.57;15.73;;;;;;;4.42;95.04;152498.50;4999980;28;20456;-84
2023/02/14 10:15:24;;;;;;;21.37;15.27;;;;;;;4.59;94.62;152542.31;5002067;28;20838;-84
2023/02/14 10:17:56;;;;;;;21.70;14.80;;;;;;;4.41;95.18;152495.94;4992364;28;20578;-84
2023/02/14 10:20:26;;;;;;;18.60;14.20;;;;;;;4.39;94.90;152490.81;4977818;28;20455;-83
2023/02/14 10:23:00;;;;;;;18.33;14.07;;;;;;;4.44;95.57;152502.38;5004828;28;20559;-84
2023/02/14 10:25:30;;;;;;;19.20;13.43;;;;;;;4.53;94.57;152526.84;4981920;28;20541;-83
2023/02/14 10:27:58;;;;;;;17.67;13.77;;;;;;;4.64;94.65;152553.91;5001765;28;20785;-83
2023/02/14 10:30:25;;;;;;;16.97;13.17;;;;;;;4.61;95.61;152547.47;4985010;28;20503;-84
2023/02/14 10:33:00;;;;;;;17.80;14.40;;;;;;;4.58;95.21;152539.72;4993352;28;20946;-84
2023/02/14 10:35:34;;;;;;;18.00;13.17;;;;;;;4.68;95.20;152564.22;5003204;28;20488;-84
2023/02/14 10:38:06;;;;;;;17.87;14.00;;;;;;;4.75;94.09;152582.25;4989438;28;20557;-84
2023/02/14 10:40:53;;;;;;;17.13;14.20;;;;;;;4.81;94.38;152597.72;4989450;28;20975;-83
2023/02/14 10:43:26;;;;;;;16.97;14.10;;;;;;;4.75;95.24;152583.56;5002802;28;20444;-84
2023/02/14 10:45:56;;;;;;;18.83;14.40;;;;;;;4.89;94.42;152619.66;4991598;28;20535;-84
2023/02/14 10:48:32;;;;;;;20.57;15.90;;;;;;;5.04;92.96;152655.69;4989576;28;20810;-84
2023/02/14 10:51:04;;;;;;;20.17;14.07;;;;;;;5.00;93.31;152645.41;4978194;28;20559;-84
2023/02/14 10:53:37;;;;;;;20.53;14.80;;;;;;;5.01;94.90;152647.97;4985459;28;20452;-84
2023/02/14 10:56:07;;;;;;;18.70;14.57;;;;;;;5.09;94.06;152668.59;4990017;28;20464;-83
2023/02/14 10:58:36;;;;;;;19.07;14.00;;;;;;;5.11;93.51;152675.03;4990029;28;20452;-84
2023/02/14 11:01:07;;;;;;;19.83;15.10;;;;;;;5.26;92.19;152713.75;4988069;28;20547;-84
2023/02/14 11:03:35;;;;;;;18.03;13.93;;;;;;;5.34;91.85;152733.06;4990494;28;20454;-84
2023/02/14 11:06:02;;;;;;;19.13;14.13;;;;;;;5.35;91.14;152735.63;4988299;28;20455;-84
2023/02/14 11:08:33;;;;;;;17.03;13.90;;;;;;;5.27;92.57;152715.03;5003006;28;20449;-84
2023/02/14 11:11:04;;;;;;;18.77;13.23;;;;;;;5.33;91.24;152730.47;5004522;28;20476;-84
2023/02/14 11:13:34;;;;;;;16.73;13.40;;;;;;;5.41;91.34;152751.09;4990562;28;21115;-84
2023/02/14 11:16:03;;;;;;;17.30;14.17;;;;;;;5.67;91.06;152818.16;4999967;28;21019;-84
2023/02/14 11:18:32;;;;;;;18.40;13.40;;;;;;;5.52;90.33;152779.47;4989069;28;20460;-84
2023/02/14 11:21:06;;;;;;;22.90;14.70;;;;;;;5.71;90.50;152827.19;5000636;28;20831;-84
2023/02/14 11:23:35;;;;;;;19.70;14.40;;;;;;;5.72;89.48;152831.03;4986169;28;20471;-84
2023/02/14 11:26:03;;;;;;;20.83;15.47;;;;;;;5.75;88.94;152838.78;5000086;28;20438;-85
2023/02/14 11:28:30;;;;;;;15.43;13.20;;;;;;;5.73;89.66;152833.63;5000180;28;20457;-85
2023/02/14 11:30:57;;;;;;;19.20;14.83;;;;;;;5.67;90.06;152816.84;5001930;28;20512;-84
2023/02/14 11:33:32;;;;;;;19.00;15.13;;;;;;;5.83;89.27;152859.41;4982608;28;20466;-85
2023/02/14 11:35:59;;;;;;;15.93;12.77;;;;;;;5.94;88.80;152887.84;5005030;28;21057;-84
2023/02/14 11:38:30;;;;;;;20.17;14.23;;;;;;;5.95;88.47;152890.44;4984969;28;20481;-85